sensor_id;sensor_type;location;lat;lon;timestamp;temperature;humidity
35796;DHT22;21916;52.428;13.302;2022-07-23T00:01:38;17.40;99.90
35796;DHT22;21916;52.428;13.302;2022-07-23T00:04:05;17.40;99.90
35796;DHT22;21916;52.428;13.302;2022-07-23T00:06:31;17.40;99.90
35796;DHT22;21916;52.428;13.302;2022-07-23T00:08:57;17.40;99.90
35796;DHT22;21916;52.428;13.302;2022-07-23T00:11:23;17.40;99.90
35796;DHT22;21916;52.428;13.302;2022-07-23T00:13:49;17.40;99.90
35796;DHT22;21916;52.428;13.302;2022-07-23T00:16:15;17.30;99.90
35796;DHT22;21916;52.428;13.302;2022-07-23T00:18:42;17.30;99.90
35796;DHT22;21916;52.428;13.302;2022-07-23T00:21:08;17.30;99.90
35796;DHT22;21916;52.428;13.302;2022-07-23T00:23:34;17.30;99.90
35796;DHT22;21916;52.428;13.302;2022-07-23T00:26:00;17.40;99.90
35796;DHT22;21916;52.428;13.302;2022-07-23T00:28:26;17.40;99.90
35796;DHT22;21916;52.428;13.302;2022-07-23T00:30:52;17.40;99.90
35796;DHT22;21916;52.428;13.302;2022-07-23T00:33:18;17.40;99.90
35796;DHT22;21916;52.428;13.302;2022-07-23T00:35:44;17.40;99.90
35796;DHT22;21916;52.428;13.302;2022-07-23T00:38:11;17.50;99.90
35796;DHT22;21916;52.428;13.302;2022-07-23T00:40:37;17.60;99.90
35796;DHT22;21916;52.428;13.302;2022-07-23T00:43:06;17.60;99.90
35796;DHT22;21916;52.428;13.302;2022-07-23T00:45:32;17.50;99.90
35796;DHT22;21916;52.428;13.302;2022-07-23T00:47:59;17.50;99.90
35796;DHT22;21916;52.428;13.302;2022-07-23T00:50:25;17.50;99.90
35796;DHT22;21916;52.428;13.302;2022-07-23T00:52:52;17.40;99.90
35796;DHT22;21916;52.428;13.302;2022-07-23T00:55:19;17.50;99.90
35796;DHT22;21916;52.428;13.302;2022-07-23T00:57:45;17.50;99.90
35796;DHT22;21916;52.428;13.302;2022-07-23T01:00:14;17.60;99.90
35796;DHT22;21916;52.428;13.302;2022-07-23T01:02:40;17.50;99.90
35796;DHT22;21916;52.428;13.302;2022-07-23T01:05:07;17.50;99.90
35796;DHT22;21916;52.428;13.302;2022-07-23T01:07:34;17.40;99.90
35796;DHT22;21916;52.428;13.302;2022-07-23T01:10:00;17.40;99.90
35796;DHT22;21916;52.428;13.302;2022-07-23T01:12:26;17.20;99.90
35796;DHT22;21916;52.428;13.302;2022-07-23T01:14:59;17.20;99.90
35796;DHT22;21916;52.428;13.302;2022-07-23T01:17:27;17.20;99.90
35796;DHT22;21916;52.428;13.302;2022-07-23T01:19:53;17.30;99.90
35796;DHT22;21916;52.428;13.302;2022-07-23T01:22:20;17.20;99.90
35796;DHT22;21916;52.428;13.302;2022-07-23T01:24:46;17.20;99.90
35796;DHT22;21916;52.428;13.302;2022-07-23T01:27:13;17.00;99.90
35796;DHT22;21916;52.428;13.302;2022-07-23T01:29:40;17.00;99.90
35796;DHT22;21916;52.428;13.302;2022-07-23T01:32:12;17.00;99.90
35796;DHT22;21916;52.428;13.302;2022-07-23T01:34:38;17.00;99.90
35796;DHT22;21916;52.428;13.302;2022-07-23T01:37:04;16.90;99.90
35796;DHT22;21916;52.428;13.302;2022-07-23T01:39:31;16.90;99.90
35796;DHT22;21916;52.428;13.302;2022-07-23T01:41:57;16.80;99.90
35796;DHT22;21916;52.428;13.302;2022-07-23T01:44:24;16.80;99.90
35796;DHT22;21916;52.428;13.302;2022-07-23T01:46:50;16.80;99.90
35796;DHT22;21916;52.428;13.302;2022-07-23T01:49:18;16.90;99.90
35796;DHT22;21916;52.428;13.302;2022-07-23T01:52:03;16.90;99.90
35796;DHT22;21916;52.428;13.302;2022-07-23T01:54:39;16.90;99.90
35796;DHT22;21916;52.428;13.302;2022-07-23T02:00:36;16.80;99.90
35796;DHT22;21916;52.428;13.302;2022-07-23T02:03:07;16.80;99.90
35796;DHT22;21916;52.428;13.302;2022-07-23T02:05:35;16.70;99.90
35796;DHT22;21916;52.428;13.302;2022-07-23T02:08:02;16.70;99.90
35796;DHT22;21916;52.428;13.302;2022-07-23T02:10:33;16.60;99.90
35796;DHT22;21916;52.428;13.302;2022-07-23T02:13:04;16.50;99.90
35796;DHT22;21916;52.428;13.302;2022-07-23T02:15:30;16.50;99.90
35796;DHT22;21916;52.428;13.302;2022-07-23T02:17:56;16.50;99.90
35796;DHT22;21916;52.428;13.302;2022-07-23T02:20:22;16.60;99.90
35796;DHT22;21916;52.428;13.302;2022-07-23T02:22:48;16.60;99.90
35796;DHT22;21916;52.428;13.302;2022-07-23T02:25:15;16.60;99.90
35796;DHT22;21916;52.428;13.302;2022-07-23T02:27:42;16.70;99.90
35796;DHT22;21916;52.428;13.302;2022-07-23T02:30:09;16.60;99.90
35796;DHT22;21916;52.428;13.302;2022-07-23T02:32:36;16.60;99.90
35796;DHT22;21916;52.428;13.302;2022-07-23T02:35:08;16.50;99.90
35796;DHT22;21916;52.428;13.302;2022-07-23T02:37:34;16.60;99.90
35796;DHT22;21916;52.428;13.302;2022-07-23T02:40:01;16.50;99.90
35796;DHT22;21916;52.428;13.302;2022-07-23T02:42:31;16.60;99.90
35796;DHT22;21916;52.428;13.302;2022-07-23T02:44:57;16.60;99.90
35796;DHT22;21916;52.428;13.302;2022-07-23T02:47:24;16.50;99.90
35796;DHT22;21916;52.428;13.302;2022-07-23T02:49:50;16.50;99.90
35796;DHT22;21916;52.428;13.302;2022-07-23T02:52:17;16.50;99.90
35796;DHT22;21916;52.428;13.302;2022-07-23T02:57:34;16.50;99.90
35796;DHT22;21916;52.428;13.302;2022-07-23T03:00:00;16.50;99.90
35796;DHT22;21916;52.428;13.302;2022-07-23T03:02:26;16.50;99.90
35796;DHT22;21916;52.428;13.302;2022-07-23T03:04:52;16.50;99.90
35796;DHT22;21916;52.428;13.302;2022-07-23T03:07:19;16.40;99.90
35796;DHT22;21916;52.428;13.302;2022-07-23T03:09:47;16.40;99.90
35796;DHT22;21916;52.428;13.302;2022-07-23T03:12:13;16.50;99.90
35796;DHT22;21916;52.428;13.302;2022-07-23T03:14:41;16.40;99.90
35796;DHT22;21916;52.428;13.302;2022-07-23T03:17:08;16.30;99.90
35796;DHT22;21916;52.428;13.302;2022-07-23T03:19:36;16.40;99.90
35796;DHT22;21916;52.428;13.302;2022-07-23T03:22:03;16.40;99.90
35796;DHT22;21916;52.428;13.302;2022-07-23T03:24:29;16.40;99.90
35796;DHT22;21916;52.428;13.302;2022-07-23T03:27:16;16.40;99.90
35796;DHT22;21916;52.428;13.302;2022-07-23T03:29:42;16.40;99.90
35796;DHT22;21916;52.428;13.302;2022-07-23T03:32:08;16.40;99.90
35796;DHT22;21916;52.428;13.302;2022-07-23T03:34:34;16.40;99.90
35796;DHT22;21916;52.428;13.302;2022-07-23T03:37:00;16.40;99.90
35796;DHT22;21916;52.428;13.302;2022-07-23T03:39:27;16.40;99.90
35796;DHT22;21916;52.428;13.302;2022-07-23T03:41:55;16.40;99.90
35796;DHT22;21916;52.428;13.302;2022-07-23T03:44:22;16.40;99.90
35796;DHT22;21916;52.428;13.302;2022-07-23T03:47:10;16.40;99.90
35796;DHT22;21916;52.428;13.302;2022-07-23T03:49:36;16.50;99.90
35796;DHT22;21916;52.428;13.302;2022-07-23T03:52:03;16.40;99.90
35796;DHT22;21916;52.428;13.302;2022-07-23T03:54:30;16.50;99.90
35796;DHT22;21916;52.428;13.302;2022-07-23T03:56:56;16.40;99.90
35796;DHT22;21916;52.428;13.302;2022-07-23T03:59:23;16.40;99.90
35796;DHT22;21916;52.428;13.302;2022-07-23T04:01:49;16.40;99.90
35796;DHT22;21916;52.428;13.302;2022-07-23T04:04:15;16.40;99.90
35796;DHT22;21916;52.428;13.302;2022-07-23T04:06:42;16.50;99.90
35796;DHT22;21916;52.428;13.302;2022-07-23T04:09:08;16.50;99.90
35796;DHT22;21916;52.428;13.302;2022-07-23T04:11:35;16.50;99.90
35796;DHT22;21916;52.428;13.302;2022-07-23T04:14:01;16.70;99.90
35796;DHT22;21916;52.428;13.302;2022-07-23T04:16:27;16.70;99.90
35796;DHT22;21916;52.428;13.302;2022-07-23T04:18:54;16.70;99.90
35796;DHT22;21916;52.428;13.302;2022-07-23T04:21:21;16.70;99.90
35796;DHT22;21916;52.428;13.302;2022-07-23T04:23:48;16.60;99.90
35796;DHT22;21916;52.428;13.302;2022-07-23T04:26:14;16.50;99.90
35796;DHT22;21916;52.428;13.302;2022-07-23T04:28:40;16.60;99.90
35796;DHT22;21916;52.428;13.302;2022-07-23T04:31:06;16.70;99.90
35796;DHT22;21916;52.428;13.302;2022-07-23T04:33:34;16.60;99.90
35796;DHT22;21916;52.428;13.302;2022-07-23T04:36:04;16.60;99.90
35796;DHT22;21916;52.428;13.302;2022-07-23T04:38:30;16.60;99.90
35796;DHT22;21916;52.428;13.302;2022-07-23T04:41:00;16.40;99.90
35796;DHT22;21916;52.428;13.302;2022-07-23T04:43:26;16.50;99.90
35796;DHT22;21916;52.428;13.302;2022-07-23T04:45:54;16.50;99.90
35796;DHT22;21916;52.428;13.302;2022-07-23T04:48:19;16.60;99.90
35796;DHT22;21916;52.428;13.302;2022-07-23T04:50:47;16.70;99.90
35796;DHT22;21916;52.428;13.302;2022-07-23T04:53:24;16.70;99.90
35796;DHT22;21916;52.428;13.302;2022-07-23T04:55:53;16.70;99.90
35796;DHT22;21916;52.428;13.302;2022-07-23T04:58:19;16.70;99.90
35796;DHT22;21916;52.428;13.302;2022-07-23T05:00:47;16.60;99.90
35796;DHT22;21916;52.428;13.302;2022-07-23T05:03:14;16.50;99.90
35796;DHT22;21916;52.428;13.302;2022-07-23T05:05:44;16.40;99.90
35796;DHT22;21916;52.428;13.302;2022-07-23T05:08:13;16.50;99.90
35796;DHT22;21916;52.428;13.302;2022-07-23T05:10:43;16.50;99.90
35796;DHT22;21916;52.428;13.302;2022-07-23T05:13:09;16.50;99.90
35796;DHT22;21916;52.428;13.302;2022-07-23T05:15:35;16.40;99.90
35796;DHT22;21916;52.428;13.302;2022-07-23T05:18:02;16.40;99.90
35796;DHT22;21916;52.428;13.302;2022-07-23T05:20:29;16.20;99.90
35796;DHT22;21916;52.428;13.302;2022-07-23T05:22:56;16.20;99.90
35796;DHT22;21916;52.428;13.302;2022-07-23T05:25:22;16.40;99.90
35796;DHT22;21916;52.428;13.302;2022-07-23T05:27:49;16.30;99.90
35796;DHT22;21916;52.428;13.302;2022-07-23T05:30:15;16.30;99.90
35796;DHT22;21916;52.428;13.302;2022-07-23T05:32:43;16.40;99.90
35796;DHT22;21916;52.428;13.302;2022-07-23T05:35:16;16.40;99.90
35796;DHT22;21916;52.428;13.302;2022-07-23T05:37:49;16.50;99.90
35796;DHT22;21916;52.428;13.302;2022-07-23T05:40:19;16.40;99.90
35796;DHT22;21916;52.428;13.302;2022-07-23T05:42:45;16.50;99.90
35796;DHT22;21916;52.428;13.302;2022-07-23T05:45:11;16.50;99.90
35796;DHT22;21916;52.428;13.302;2022-07-23T05:47:48;16.40;99.90
35796;DHT22;21916;52.428;13.302;2022-07-23T05:50:22;16.40;99.90
35796;DHT22;21916;52.428;13.302;2022-07-23T05:52:56;16.50;99.90
35796;DHT22;21916;52.428;13.302;2022-07-23T05:55:27;16.40;99.90
35796;DHT22;21916;52.428;13.302;2022-07-23T05:57:56;16.30;99.90
35796;DHT22;21916;52.428;13.302;2022-07-23T06:00:22;16.40;99.90
35796;DHT22;21916;52.428;13.302;2022-07-23T06:02:48;16.50;99.90
35796;DHT22;21916;52.428;13.302;2022-07-23T06:05:16;16.50;99.90
35796;DHT22;21916;52.428;13.302;2022-07-23T06:07:43;16.60;99.90
35796;DHT22;21916;52.428;13.302;2022-07-23T06:10:09;16.60;99.90
35796;DHT22;21916;52.428;13.302;2022-07-23T06:12:36;16.60;99.90
35796;DHT22;21916;52.428;13.302;2022-07-23T06:15:03;16.50;99.90
35796;DHT22;21916;52.428;13.302;2022-07-23T06:17:29;16.50;99.90
35796;DHT22;21916;52.428;13.302;2022-07-23T06:19:56;16.50;99.90
35796;DHT22;21916;52.428;13.302;2022-07-23T06:22:22;16.60;99.90
35796;DHT22;21916;52.428;13.302;2022-07-23T06:24:49;16.60;99.90
35796;DHT22;21916;52.428;13.302;2022-07-23T06:27:18;16.60;99.90
35796;DHT22;21916;52.428;13.302;2022-07-23T06:29:45;16.60;99.90
35796;DHT22;21916;52.428;13.302;2022-07-23T06:32:11;16.70;99.90
35796;DHT22;21916;52.428;13.302;2022-07-23T06:34:37;16.90;99.90
35796;DHT22;21916;52.428;13.302;2022-07-23T06:37:03;16.90;99.90
35796;DHT22;21916;52.428;13.302;2022-07-23T06:39:29;16.90;99.90
35796;DHT22;21916;52.428;13.302;2022-07-23T06:41:57;16.90;99.90
35796;DHT22;21916;52.428;13.302;2022-07-23T06:44:35;16.90;99.90
35796;DHT22;21916;52.428;13.302;2022-07-23T06:47:01;17.10;99.90
35796;DHT22;21916;52.428;13.302;2022-07-23T06:49:28;17.20;99.90
35796;DHT22;21916;52.428;13.302;2022-07-23T06:51:57;17.30;99.90
35796;DHT22;21916;52.428;13.302;2022-07-23T06:54:23;17.40;99.90
35796;DHT22;21916;52.428;13.302;2022-07-23T06:56:50;17.40;99.90
35796;DHT22;21916;52.428;13.302;2022-07-23T06:59:16;17.40;99.90
35796;DHT22;21916;52.428;13.302;2022-07-23T07:01:42;17.40;99.90
35796;DHT22;21916;52.428;13.302;2022-07-23T07:04:08;17.50;99.90
35796;DHT22;21916;52.428;13.302;2022-07-23T07:06:34;17.40;99.90
35796;DHT22;21916;52.428;13.302;2022-07-23T07:09:05;17.50;99.90
35796;DHT22;21916;52.428;13.302;2022-07-23T07:11:31;17.50;99.90
35796;DHT22;21916;52.428;13.302;2022-07-23T07:13:57;17.60;99.90
35796;DHT22;21916;52.428;13.302;2022-07-23T07:16:23;17.70;99.90
35796;DHT22;21916;52.428;13.302;2022-07-23T07:18:49;17.70;99.90
35796;DHT22;21916;52.428;13.302;2022-07-23T07:21:15;17.70;99.90
35796;DHT22;21916;52.428;13.302;2022-07-23T07:23:41;17.70;99.90
35796;DHT22;21916;52.428;13.302;2022-07-23T07:26:09;17.70;99.90
35796;DHT22;21916;52.428;13.302;2022-07-23T07:28:35;17.70;99.90
35796;DHT22;21916;52.428;13.302;2022-07-23T07:31:01;17.80;99.90
35796;DHT22;21916;52.428;13.302;2022-07-23T07:33:27;17.80;99.90
35796;DHT22;21916;52.428;13.302;2022-07-23T07:35:53;17.80;99.90
35796;DHT22;21916;52.428;13.302;2022-07-23T07:38:19;18.10;99.90
35796;DHT22;21916;52.428;13.302;2022-07-23T07:40:45;18.20;99.90
35796;DHT22;21916;52.428;13.302;2022-07-23T07:43:11;18.30;99.90
35796;DHT22;21916;52.428;13.302;2022-07-23T07:45:37;18.40;99.90
35796;DHT22;21916;52.428;13.302;2022-07-23T07:48:03;18.40;99.90
35796;DHT22;21916;52.428;13.302;2022-07-23T07:50:29;18.40;99.90
35796;DHT22;21916;52.428;13.302;2022-07-23T07:52:55;18.60;99.90
35796;DHT22;21916;52.428;13.302;2022-07-23T07:55:21;18.60;99.90
35796;DHT22;21916;52.428;13.302;2022-07-23T07:57:47;18.80;99.90
35796;DHT22;21916;52.428;13.302;2022-07-23T08:00:13;18.60;99.90
35796;DHT22;21916;52.428;13.302;2022-07-23T08:02:44;18.60;99.90
35796;DHT22;21916;52.428;13.302;2022-07-23T08:05:10;18.50;99.90
35796;DHT22;21916;52.428;13.302;2022-07-23T08:07:36;18.40;99.90
35796;DHT22;21916;52.428;13.302;2022-07-23T08:10:03;18.70;99.90
35796;DHT22;21916;52.428;13.302;2022-07-23T08:12:38;18.90;99.90
35796;DHT22;21916;52.428;13.302;2022-07-23T08:15:04;18.80;99.90
35796;DHT22;21916;52.428;13.302;2022-07-23T08:17:30;18.80;99.90
35796;DHT22;21916;52.428;13.302;2022-07-23T08:19:56;18.80;99.90
35796;DHT22;21916;52.428;13.302;2022-07-23T08:22:22;19.20;99.90
35796;DHT22;21916;52.428;13.302;2022-07-23T08:24:48;19.40;99.90
35796;DHT22;21916;52.428;13.302;2022-07-23T08:27:14;19.10;99.90
35796;DHT22;21916;52.428;13.302;2022-07-23T08:29:40;19.10;99.90
35796;DHT22;21916;52.428;13.302;2022-07-23T08:32:06;18.90;99.90
35796;DHT22;21916;52.428;13.302;2022-07-23T08:34:32;18.80;99.90
35796;DHT22;21916;52.428;13.302;2022-07-23T08:36:57;18.80;99.90
35796;DHT22;21916;52.428;13.302;2022-07-23T08:39:23;19.20;99.90
35796;DHT22;21916;52.428;13.302;2022-07-23T08:41:50;19.30;99.90
35796;DHT22;21916;52.428;13.302;2022-07-23T08:44:16;19.20;99.90
35796;DHT22;21916;52.428;13.302;2022-07-23T08:46:44;19.40;99.90
35796;DHT22;21916;52.428;13.302;2022-07-23T08:49:10;19.50;99.90
35796;DHT22;21916;52.428;13.302;2022-07-23T08:51:36;19.20;99.90
35796;DHT22;21916;52.428;13.302;2022-07-23T08:54:02;19.00;99.90
35796;DHT22;21916;52.428;13.302;2022-07-23T08:56:28;19.00;99.90
35796;DHT22;21916;52.428;13.302;2022-07-23T08:58:54;19.20;99.90
35796;DHT22;21916;52.428;13.302;2022-07-23T09:01:20;19.20;99.90
35796;DHT22;21916;52.428;13.302;2022-07-23T09:03:46;19.50;99.90
35796;DHT22;21916;52.428;13.302;2022-07-23T09:06:12;19.90;99.90
35796;DHT22;21916;52.428;13.302;2022-07-23T09:08:44;20.10;99.90
35796;DHT22;21916;52.428;13.302;2022-07-23T09:11:21;20.30;99.90
35796;DHT22;21916;52.428;13.302;2022-07-23T09:13:50;20.00;99.90
35796;DHT22;21916;52.428;13.302;2022-07-23T09:16:19;19.50;99.90
35796;DHT22;21916;52.428;13.302;2022-07-23T09:18:55;19.80;99.90
35796;DHT22;21916;52.428;13.302;2022-07-23T09:21:26;20.20;99.90
35796;DHT22;21916;52.428;13.302;2022-07-23T09:24:04;20.60;99.90
35796;DHT22;21916;52.428;13.302;2022-07-23T09:26:43;21.00;99.90
35796;DHT22;21916;52.428;13.302;2022-07-23T09:36:58;20.20;99.90
35796;DHT22;21916;52.428;13.302;2022-07-23T09:39:33;19.90;99.90
35796;DHT22;21916;52.428;13.302;2022-07-23T09:42:22;20.00;99.90
35796;DHT22;21916;52.428;13.302;2022-07-23T09:44:52;20.10;99.90
35796;DHT22;21916;52.428;13.302;2022-07-23T09:47:19;20.40;99.90
35796;DHT22;21916;52.428;13.302;2022-07-23T09:50:05;20.90;99.90
35796;DHT22;21916;52.428;13.302;2022-07-23T09:52:35;21.30;99.90
35796;DHT22;21916;52.428;13.302;2022-07-23T09:55:06;21.30;99.90
35796;DHT22;21916;52.428;13.302;2022-07-23T09:57:32;21.10;99.90
35796;DHT22;21916;52.428;13.302;2022-07-23T10:00:01;21.50;99.90
35796;DHT22;21916;52.428;13.302;2022-07-23T10:02:32;21.70;99.90
35796;DHT22;21916;52.428;13.302;2022-07-23T10:05:17;21.80;99.90
35796;DHT22;21916;52.428;13.302;2022-07-23T10:08:04;21.70;99.90
35796;DHT22;21916;52.428;13.302;2022-07-23T10:10:35;22.10;99.90
35796;DHT22;21916;52.428;13.302;2022-07-23T10:13:34;22.00;99.90
35796;DHT22;21916;52.428;13.302;2022-07-23T10:16:13;21.70;99.90
35796;DHT22;21916;52.428;13.302;2022-07-23T10:18:39;21.60;99.90
35796;DHT22;21916;52.428;13.302;2022-07-23T10:21:07;22.00;99.90
35796;DHT22;21916;52.428;13.302;2022-07-23T10:23:48;22.30;99.90
35796;DHT22;21916;52.428;13.302;2022-07-23T10:26:22;22.30;99.90
35796;DHT22;21916;52.428;13.302;2022-07-23T10:29:02;21.90;99.90
35796;DHT22;21916;52.428;13.302;2022-07-23T10:31:56;21.90;99.90
35796;DHT22;21916;52.428;13.302;2022-07-23T10:37:28;22.30;99.90
35796;DHT22;21916;52.428;13.302;2022-07-23T10:42:38;21.50;99.90
35796;DHT22;21916;52.428;13.302;2022-07-23T10:45:24;21.80;99.90
35796;DHT22;21916;52.428;13.302;2022-07-23T10:47:51;21.60;99.90
35796;DHT22;21916;52.428;13.302;2022-07-23T10:57:58;22.70;99.90
35796;DHT22;21916;52.428;13.302;2022-07-23T11:00:26;23.70;99.90
35796;DHT22;21916;52.428;13.302;2022-07-23T11:02:57;23.60;99.90
35796;DHT22;21916;52.428;13.302;2022-07-23T11:05:43;23.20;99.90
35796;DHT22;21916;52.428;13.302;2022-07-23T11:31:57;27.10;95.70
35796;DHT22;21916;52.428;13.302;2022-07-23T11:37:03;27.70;94.30
35796;DHT22;21916;52.428;13.302;2022-07-23T11:39:30;28.30;93.70
35796;DHT22;21916;52.428;13.302;2022-07-23T11:41:58;29.20;92.60
35796;DHT22;21916;52.428;13.302;2022-07-23T11:44:30;28.50;92.10
35796;DHT22;21916;52.428;13.302;2022-07-23T11:47:05;27.90;93.10
35796;DHT22;21916;52.428;13.302;2022-07-23T11:49:32;27.30;93.20
35796;DHT22;21916;52.428;13.302;2022-07-23T11:54:46;28.10;92.50
35796;DHT22;21916;52.428;13.302;2022-07-23T11:57:12;28.90;92.00
35796;DHT22;21916;52.428;13.302;2022-07-23T11:59:39;29.90;91.00
35796;DHT22;21916;52.428;13.302;2022-07-23T12:02:06;30.10;90.40
35796;DHT22;21916;52.428;13.302;2022-07-23T12:04:40;28.40;91.20
35796;DHT22;21916;52.428;13.302;2022-07-23T12:07:29;26.60;92.70
35796;DHT22;21916;52.428;13.302;2022-07-23T12:10:03;25.30;94.80
35796;DHT22;21916;52.428;13.302;2022-07-23T12:12:45;24.30;96.00
35796;DHT22;21916;52.428;13.302;2022-07-23T12:15:13;24.60;96.10
35796;DHT22;21916;52.428;13.302;2022-07-23T12:17:41;25.20;96.00
35796;DHT22;21916;52.428;13.302;2022-07-23T12:20:09;25.90;94.80
35796;DHT22;21916;52.428;13.302;2022-07-23T12:22:44;25.50;95.20
35796;DHT22;21916;52.428;13.302;2022-07-23T12:25:15;25.00;95.80
35796;DHT22;21916;52.428;13.302;2022-07-23T12:27:43;25.30;95.40
35796;DHT22;21916;52.428;13.302;2022-07-23T12:33:05;26.80;94.00
35796;DHT22;21916;52.428;13.302;2022-07-23T12:38:10;25.40;94.40
35796;DHT22;21916;52.428;13.302;2022-07-23T12:40:45;24.60;95.40
35796;DHT22;21916;52.428;13.302;2022-07-23T12:43:26;24.40;96.10
35796;DHT22;21916;52.428;13.302;2022-07-23T12:53:38;28.00;92.90
35796;DHT22;21916;52.428;13.302;2022-07-23T12:56:12;28.30;91.80
35796;DHT22;21916;52.428;13.302;2022-07-23T12:58:51;27.80;92.20
35796;DHT22;21916;52.428;13.302;2022-07-23T13:01:28;27.30;92.70
35796;DHT22;21916;52.428;13.302;2022-07-23T13:04:08;28.20;92.00
35796;DHT22;21916;52.428;13.302;2022-07-23T13:06:45;28.70;91.70
35796;DHT22;21916;52.428;13.302;2022-07-23T13:09:19;29.70;90.10
35796;DHT22;21916;52.428;13.302;2022-07-23T13:11:46;29.70;89.40
35796;DHT22;21916;52.428;13.302;2022-07-23T13:14:14;30.00;87.40
35796;DHT22;21916;52.428;13.302;2022-07-23T13:16:40;31.00;86.00
35796;DHT22;21916;52.428;13.302;2022-07-23T13:19:06;31.20;83.90
35796;DHT22;21916;52.428;13.302;2022-07-23T13:21:33;31.40;83.10
35796;DHT22;21916;52.428;13.302;2022-07-23T13:23:59;31.70;82.50
35796;DHT22;21916;52.428;13.302;2022-07-23T13:26:25;31.60;81.30
35796;DHT22;21916;52.428;13.302;2022-07-23T13:28:52;32.30;80.40
35796;DHT22;21916;52.428;13.302;2022-07-23T13:31:18;32.90;78.70
35796;DHT22;21916;52.428;13.302;2022-07-23T13:33:44;33.30;78.10
35796;DHT22;21916;52.428;13.302;2022-07-23T13:36:11;32.90;76.70
35796;DHT22;21916;52.428;13.302;2022-07-23T13:38:36;33.00;76.30
35796;DHT22;21916;52.428;13.302;2022-07-23T13:41:03;32.50;75.80
35796;DHT22;21916;52.428;13.302;2022-07-23T13:43:29;32.40;75.20
35796;DHT22;21916;52.428;13.302;2022-07-23T13:45:55;31.20;76.60
35796;DHT22;21916;52.428;13.302;2022-07-23T13:48:21;31.10;77.70
35796;DHT22;21916;52.428;13.302;2022-07-23T13:50:49;32.00;75.50
35796;DHT22;21916;52.428;13.302;2022-07-23T13:53:17;32.40;74.60
35796;DHT22;21916;52.428;13.302;2022-07-23T13:55:43;31.30;75.40
35796;DHT22;21916;52.428;13.302;2022-07-23T13:58:10;30.50;77.40
35796;DHT22;21916;52.428;13.302;2022-07-23T14:00:38;31.90;76.60
35796;DHT22;21916;52.428;13.302;2022-07-23T14:03:05;33.30;74.50
35796;DHT22;21916;52.428;13.302;2022-07-23T14:05:31;32.70;73.90
35796;DHT22;21916;52.428;13.302;2022-07-23T14:07:57;32.40;73.70
35796;DHT22;21916;52.428;13.302;2022-07-23T14:10:23;32.00;73.60
35796;DHT22;21916;52.428;13.302;2022-07-23T14:12:51;32.10;74.00
35796;DHT22;21916;52.428;13.302;2022-07-23T14:15:18;32.90;72.10
35796;DHT22;21916;52.428;13.302;2022-07-23T14:17:45;33.30;70.50
35796;DHT22;21916;52.428;13.302;2022-07-23T14:20:13;33.70;70.00
35796;DHT22;21916;52.428;13.302;2022-07-23T14:22:40;32.10;70.20
35796;DHT22;21916;52.428;13.302;2022-07-23T14:25:07;30.90;71.80
35796;DHT22;21916;52.428;13.302;2022-07-23T14:27:34;29.40;74.00
35796;DHT22;21916;52.428;13.302;2022-07-23T14:30:00;28.80;75.60
35796;DHT22;21916;52.428;13.302;2022-07-23T14:32:26;28.50;77.60
35796;DHT22;21916;52.428;13.302;2022-07-23T14:34:52;28.70;78.10
35796;DHT22;21916;52.428;13.302;2022-07-23T14:37:18;29.00;76.10
35796;DHT22;21916;52.428;13.302;2022-07-23T14:39:45;28.90;76.80
35796;DHT22;21916;52.428;13.302;2022-07-23T14:42:11;29.80;76.50
35796;DHT22;21916;52.428;13.302;2022-07-23T14:44:37;30.60;74.30
35796;DHT22;21916;52.428;13.302;2022-07-23T14:47:04;31.00;73.80
35796;DHT22;21916;52.428;13.302;2022-07-23T14:49:34;31.40;72.90
35796;DHT22;21916;52.428;13.302;2022-07-23T14:52:00;31.30;72.20
35796;DHT22;21916;52.428;13.302;2022-07-23T14:54:27;31.10;72.60
35796;DHT22;21916;52.428;13.302;2022-07-23T14:56:55;31.50;71.90
35796;DHT22;21916;52.428;13.302;2022-07-23T14:59:21;31.70;71.70
35796;DHT22;21916;52.428;13.302;2022-07-23T15:01:48;32.70;71.10
35796;DHT22;21916;52.428;13.302;2022-07-23T15:04:14;34.00;69.40
35796;DHT22;21916;52.428;13.302;2022-07-23T15:06:40;32.80;68.20
35796;DHT22;21916;52.428;13.302;2022-07-23T15:09:06;32.50;68.90
35796;DHT22;21916;52.428;13.302;2022-07-23T15:11:32;33.70;68.50
35796;DHT22;21916;52.428;13.302;2022-07-23T15:14:00;33.80;67.40
35796;DHT22;21916;52.428;13.302;2022-07-23T15:16:27;32.50;68.00
35796;DHT22;21916;52.428;13.302;2022-07-23T15:18:53;32.50;68.30
35796;DHT22;21916;52.428;13.302;2022-07-23T15:21:20;32.30;68.30
35796;DHT22;21916;52.428;13.302;2022-07-23T15:23:46;32.30;68.30
35796;DHT22;21916;52.428;13.302;2022-07-23T15:26:12;33.30;67.30
35796;DHT22;21916;52.428;13.302;2022-07-23T15:28:40;32.70;66.40
35796;DHT22;21916;52.428;13.302;2022-07-23T15:31:06;32.50;67.70
35796;DHT22;21916;52.428;13.302;2022-07-23T15:33:32;32.70;68.10
35796;DHT22;21916;52.428;13.302;2022-07-23T15:35:58;31.50;67.00
35796;DHT22;21916;52.428;13.302;2022-07-23T15:38:25;29.70;69.70
35796;DHT22;21916;52.428;13.302;2022-07-23T15:40:55;30.40;70.40
35796;DHT22;21916;52.428;13.302;2022-07-23T15:43:23;31.80;68.70
35796;DHT22;21916;52.428;13.302;2022-07-23T15:45:49;31.60;68.50
35796;DHT22;21916;52.428;13.302;2022-07-23T15:48:16;31.10;68.70
35796;DHT22;21916;52.428;13.302;2022-07-23T15:50:43;31.50;68.70
35796;DHT22;21916;52.428;13.302;2022-07-23T15:53:09;32.30;67.40
35796;DHT22;21916;52.428;13.302;2022-07-23T15:55:35;31.40;67.70
35796;DHT22;21916;52.428;13.302;2022-07-23T15:58:02;31.00;68.70
35796;DHT22;21916;52.428;13.302;2022-07-23T16:00:28;31.50;67.00
35796;DHT22;21916;52.428;13.302;2022-07-23T16:02:54;31.00;67.70
35796;DHT22;21916;52.428;13.302;2022-07-23T16:05:20;30.90;68.20
35796;DHT22;21916;52.428;13.302;2022-07-23T16:08:02;30.50;68.20
35796;DHT22;21916;52.428;13.302;2022-07-23T16:10:29;30.40;67.70
35796;DHT22;21916;52.428;13.302;2022-07-23T16:12:55;29.80;68.80
35796;DHT22;21916;52.428;13.302;2022-07-23T16:15:21;29.80;68.90
35796;DHT22;21916;52.428;13.302;2022-07-23T16:17:47;29.50;68.80
35796;DHT22;21916;52.428;13.302;2022-07-23T16:20:13;28.20;69.80
35796;DHT22;21916;52.428;13.302;2022-07-23T16:22:40;27.10;71.80
35796;DHT22;21916;52.428;13.302;2022-07-23T16:25:06;26.30;73.80
35796;DHT22;21916;52.428;13.302;2022-07-23T16:27:34;26.60;73.80
35796;DHT22;21916;52.428;13.302;2022-07-23T16:30:00;27.60;71.80
35796;DHT22;21916;52.428;13.302;2022-07-23T16:32:26;28.40;71.30